Time;durP1;ratioP1;P1;durP2;ratioP2;P2;SDS_P1;SDS_P2;PMS_P1;PMS_P2;Temp;Humidity;BMP_temperature;BMP_pressure;BME280_temperature;BME280_humidity;BME280_pressure;Samples;Min_cycle;Max_cycle;Signal;HPM_P1;HPM_P2
2024/04/01 00:01:43;;;;;;;15.60;2.10;;;;;;;13.57;100.00;99522.50;106184;1251;62573;-55
2024/04/01 00:04:10;;;;;;;10.10;1.40;;;;;;;13.53;100.00;99524.15;106128;1251;75176;-56
2024/04/01 00:06:37;;;;;;;9.60;0.90;;;;;;;13.51;100.00;99519.84;106173;1251;66734;-57
2024/04/01 00:09:04;;;;;;;7.60;1.10;;;;;;;13.47;100.00;99514.83;106085;1267;70133;-54
2024/04/01 00:11:31;;;;;;;8.30;1.40;;;;;;;13.44;100.00;99516.27;106129;1257;61355;-54
2024/04/01 00:13:58;;;;;;;11.30;1.10;;;;;;;13.42;100.00;99513.02;106215;1257;62087;-57
2024/04/01 00:16:25;;;;;;;7.90;0.70;;;;;;;13.40;100.00;99509.36;106191;1251;73338;-55
2024/04/01 00:18:52;;;;;;;9.70;1.30;;;;;;;13.38;100.00;99506.39;106088;1253;66886;-55
2024/04/01 00:21:19;;;;;;;8.80;1.50;;;;;;;13.38;100.00;99500.84;106121;1253;73085;-57
2024/04/01 00:23:49;;;;;;;12.30;1.30;;;;;;;13.37;100.00;99502.48;106125;1257;61366;-56
2024/04/01 00:26:16;;;;;;;10.80;1.10;;;;;;;13.36;100.00;99496.61;106163;1257;61430;-56
2024/04/01 00:28:43;;;;;;;10.90;1.30;;;;;;;13.35;100.00;99497.25;106438;1257;74662;-56
2024/04/01 00:31:11;;;;;;;7.60;1.50;;;;;;;13.34;100.00;99494.78;106142;1251;66709;-56
2024/04/01 00:33:38;;;;;;;14.10;1.40;;;;;;;13.33;100.00;99500.10;106150;1257;72714;-55
2024/04/01 00:36:05;;;;;;;10.20;1.30;;;;;;;13.32;100.00;99502.14;106130;1251;62029;-56
2024/04/01 00:38:32;;;;;;;11.10;1.40;;;;;;;13.31;100.00;99503.30;106185;1257;61253;-55
2024/04/01 00:40:59;;;;;;;11.10;1.60;;;;;;;13.29;100.00;99497.48;106147;1251;73448;-54
2024/04/01 00:43:27;;;;;;;12.50;1.30;;;;;;;13.26;100.00;99489.55;106128;1260;65606;-55
2024/04/01 00:45:54;;;;;;;17.40;3.20;;;;;;;13.23;100.00;99494.92;106164;1267;72667;-57
2024/04/01 00:48:21;;;;;;;10.60;1.50;;;;;;;13.20;100.00;99487.73;106146;1251;62238;-57
2024/04/01 00:50:49;;;;;;;12.50;1.50;;;;;;;13.17;100.00;99480.55;106130;1256;61260;-54
2024/04/01 00:53:16;;;;;;;11.40;1.20;;;;;;;13.15;100.00;99476.00;106819;1251;73446;-56
2024/04/01 00:55:44;;;;;;;6.40;0.90;;;;;;;13.12;100.00;99470.54;106135;1259;65883;-56
2024/04/01 00:58:11;;;;;;;11.80;1.40;;;;;;;13.10;100.00;99466.35;106074;1257;72693;-56
2024/04/01 01:00:38;;;;;;;15.10;1.70;;;;;;;13.08;100.00;99469.03;106162;1252;61669;-56
2024/04/01 01:03:07;;;;;;;12.20;1.00;;;;;;;13.07;100.00;99462.58;106140;1256;61286;-55
2024/04/01 01:05:34;;;;;;;9.20;1.40;;;;;;;13.07;100.00;99457.90;106158;1258;74623;-56
2024/04/01 01:08:02;;;;;;;9.30;1.50;;;;;;;13.07;100.00;99459.88;106159;1256;66042;-56
2024/04/01 01:10:31;;;;;;;13.60;1.70;;;;;;;13.08;100.00;99455.70;106093;1251;71265;-56
2024/04/01 01:12:58;;;;;;;9.40;1.40;;;;;;;13.06;100.00;99452.38;106056;1260;61186;-56
2024/04/01 01:15:26;;;;;;;7.90;1.10;;;;;;;13.05;100.00;99451.19;106136;1257;61135;-58
2024/04/01 01:17:54;;;;;;;9.70;1.10;;;;;;;13.04;100.00;99450.70;109246;1251;73743;-56
2024/04/01 01:20:21;;;;;;;10.70;1.40;;;;;;;13.02;100.00;99440.55;109135;1252;66911;-55
2024/04/01 01:22:49;;;;;;;9.60;1.80;;;;;;;13.00;100.00;99434.63;109050;1252;72855;-56
2024/04/01 01:25:16;;;;;;;13.10;1.50;;;;;;;12.96;100.00;99425.83;109119;1253;58947;-56
2024/04/01 01:27:44;;;;;;;17.50;1.80;;;;;;;12.93;100.00;99425.46;109165;1253;60008;-55
2024/04/01 01:30:17;;;;;;;9.70;1.60;;;;;;;12.90;100.00;99430.91;109267;1253;74648;-55
2024/04/01 01:32:46;;;;;;;15.80;2.00;;;;;;;12.86;100.00;99436.16;109133;1253;66940;-56
2024/04/01 01:35:14;;;;;;;11.10;1.30;;;;;;;12.81;100.00;99442.43;109049;1253;71375;-56
2024/04/01 01:37:41;;;;;;;12.70;1.70;;;;;;;12.77;100.00;99446.48;106832;1257;61633;-56
2024/04/01 01:40:08;;;;;;;12.20;1.80;;;;;;;12.73;100.00;99458.05;105992;1259;62176;-56
2024/04/01 01:42:35;;;;;;;11.90;1.10;;;;;;;12.70;100.00;99472.82;106064;1254;72916;-56
2024/04/01 01:45:03;;;;;;;12.30;1.10;;;;;;;12.67;100.00;99457.69;106113;1256;66929;-55
2024/04/01 01:47:32;;;;;;;8.80;1.00;;;;;;;12.66;100.00;99448.27;106228;1253;72471;-55
2024/04/01 01:49:59;;;;;;;14.70;1.60;;;;;;;12.65;100.00;99450.67;106558;1254;61228;-55
2024/04/01 01:52:26;;;;;;;11.10;1.40;;;;;;;12.62;100.00;99438.02;106170;1255;61305;-54
2024/04/01 01:54:54;;;;;;;12.60;1.00;;;;;;;12.61;100.00;99437.05;106058;1258;73488;-55
2024/04/01 01:57:21;;;;;;;15.40;1.20;;;;;;;12.58;100.00;99431.27;106057;1257;65516;-56
2024/04/01 01:59:49;;;;;;;13.70;1.40;;;;;;;12.55;100.00;99430.04;106197;1257;71890;-57
2024/04/01 02:02:16;;;;;;;13.90;1.60;;;;;;;12.52;100.00;99424.59;106031;1257;62012;-56
2024/04/01 02:04:43;;;;;;;18.90;1.30;;;;;;;12.49;100.00;99428.73;106079;1253;61216;-55
2024/04/01 02:07:10;;;;;;;10.30;1.20;;;;;;;12.46;100.00;99428.71;106030;1252;74516;-55
2024/04/01 02:09:37;;;;;;;10.90;1.20;;;;;;;12.43;100.00;99437.41;106058;1256;67569;-56
2024/04/01 02:12:08;;;;;;;14.80;1.00;;;;;;;12.39;100.00;99447.21;106056;1256;70525;-55
2024/04/01 02:14:35;;;;;;;17.10;1.20;;;;;;;12.36;100.00;99434.95;106127;1253;61403;-55
2024/04/01 02:17:07;;;;;;;14.90;1.60;;;;;;;12.34;100.00;99432.75;106135;1253;61254;-56
2024/04/01 02:19:35;;;;;;;17.50;1.60;;;;;;;12.30;100.00;99434.77;106091;1253;74626;-56
2024/04/01 02:22:02;;;;;;;8.40;1.20;;;;;;;12.28;100.00;99439.92;106084;1253;67071;-56
2024/04/01 02:24:29;;;;;;;10.20;1.80;;;;;;;12.28;100.00;99438.35;106202;1256;71403;-56
2024/04/01 02:26:56;;;;;;;12.10;1.60;;;;;;;12.26;100.00;99439.30;106061;1255;61458;-54
2024/04/01 02:29:24;;;;;;;8.10;2.40;;;;;;;12.24;100.00;99441.82;105964;1253;61291;-55
2024/04/01 02:31:51;;;;;;;7.90;1.50;;;;;;;12.23;100.00;99448.38;106077;1257;74647;-55
2024/04/01 02:34:18;;;;;;;8.90;1.90;;;;;;;12.19;100.00;99442.81;106043;1252;66001;-55
2024/04/01 02:36:45;;;;;;;7.80;1.60;;;;;;;12.17;100.00;99440.77;105913;1253;70761;-53
2024/04/01 02:39:16;;;;;;;20.30;2.50;;;;;;;12.15;100.00;99437.88;105918;1257;61701;-54
2024/04/01 02:41:47;;;;;;;23.70;1.70;;;;;;;12.13;100.00;99430.59;106225;1257;61312;-55
2024/04/01 02:44:14;;;;;;;13.30;1.50;;;;;;;12.11;100.00;99425.48;106183;1256;76619;-56
2024/04/01 02:46:41;;;;;;;11.10;1.30;;;;;;;12.08;100.00;99426.71;105988;1257;66768;-55
2024/04/01 02:49:12;;;;;;;11.30;1.50;;;;;;;12.07;100.00;99422.67;106008;1257;71407;-55
2024/04/01 02:51:39;;;;;;;11.90;1.10;;;;;;;12.06;100.00;99431.90;105998;1257;61283;-55
2024/04/01 02:54:06;;;;;;;10.60;1.40;;;;;;;12.04;100.00;99427.71;106060;1253;61737;-55
2024/04/01 02:56:33;;;;;;;24.70;3.10;;;;;;;12.03;100.00;99427.78;106022;1257;74594;-55
2024/04/01 02:59:04;;;;;;;12.40;1.50;;;;;;;12.01;100.00;99422.30;106148;1257;66794;-56
2024/04/01 03:01:31;;;;;;;16.00;2.80;;;;;;;11.99;100.00;99425.29;106134;1257;71842;-55
2024/04/01 03:04:01;;;;;;;9.10;1.30;;;;;;;11.97;100.00;99432.81;106051;1257;61383;-55
2024/04/01 03:06:29;;;;;;;21.20;2.20;;;;;;;11.95;100.00;99431.32;106020;1254;62003;-56
2024/04/01 03:08:56;;;;;;;11.00;1.20;;;;;;;11.92;100.00;99424.62;106077;1254;76531;-57
2024/04/01 03:11:23;;;;;;;15.70;1.20;;;;;;;11.91;100.00;99430.50;106317;1257;67336;-54
2024/04/01 03:13:50;;;;;;;12.90;1.70;;;;;;;11.88;100.00;99433.73;106044;1259;72407;-56
2024/04/01 03:16:21;;;;;;;21.00;1.40;;;;;;;11.86;100.00;99431.32;106110;1257;62094;-56
2024/04/01 03:18:48;;;;;;;17.60;1.40;;;;;;;11.84;100.00;99436.09;106189;1251;61361;-55
2024/04/01 03:21:15;;;;;;;11.70;1.30;;;;;;;11.83;100.00;99438.70;106179;1257;74555;-56
2024/04/01 03:23:43;;;;;;;11.10;2.60;;;;;;;11.81;100.00;99438.09;106308;1252;66762;-55
2024/04/01 03:26:10;;;;;;;13.40;1.40;;;;;;;11.79;100.00;99438.36;106322;1256;71725;-57
2024/04/01 03:28:37;;;;;;;10.60;1.50;;;;;;;11.78;100.00;99437.16;106182;1251;61314;-55
2024/04/01 03:31:05;;;;;;;13.30;1.30;;;;;;;11.77;100.00;99432.55;106189;1251;61263;-55
2024/04/01 03:33:34;;;;;;;17.60;1.40;;;;;;;11.74;100.00;99436.83;106272;1251;73344;-55
2024/04/01 03:36:01;;;;;;;11.80;1.60;;;;;;;11.72;100.00;99431.89;106195;1256;65495;-56
2024/04/01 03:38:28;;;;;;;12.60;1.30;;;;;;;11.71;100.00;99435.17;106176;1257;72536;-55
2024/04/01 03:40:55;;;;;;;11.60;1.50;;;;;;;11.69;100.00;99437.26;106154;1257;61261;-56
2024/04/01 03:43:22;;;;;;;13.30;1.20;;;;;;;11.69;100.00;99437.09;106241;1251;61173;-55
2024/04/01 03:46:02;;;;;;;11.30;1.40;;;;;;;11.71;100.00;99437.52;106174;1257;73416;-55
2024/04/01 03:48:31;;;;;;;9.50;1.00;;;;;;;11.73;100.00;99437.96;106210;1251;65960;-55
2024/04/01 03:50:58;;;;;;;12.40;1.60;;;;;;;11.73;100.00;99434.90;106350;1257;72657;-55
2024/04/01 03:53:25;;;;;;;11.20;1.50;;;;;;;11.72;100.00;99434.43;106243;1257;61295;-55
2024/04/01 03:55:52;;;;;;;24.30;2.00;;;;;;;11.70;100.00;99432.21;106221;1251;62297;-55
2024/04/01 03:58:20;;;;;;;10.60;1.50;;;;;;;11.67;100.00;99433.61;106254;1253;74568;-56
2024/04/01 04:00:47;;;;;;;15.60;1.90;;;;;;;11.65;100.00;99434.64;106214;1256;66825;-56
2024/04/01 04:03:14;;;;;;;15.70;1.80;;;;;;;11.64;100.00;99435.60;106295;1257;72975;-55
2024/04/01 04:05:42;;;;;;;17.40;2.00;;;;;;;11.63;100.00;99436.00;106202;1257;61311;-56
2024/04/01 04:08:10;;;;;;;20.80;1.70;;;;;;;11.63;100.00;99436.58;106184;1256;59971;-56
2024/04/01 04:10:37;;;;;;;14.80;1.70;;;;;;;11.64;100.00;99435.60;106233;1257;74800;-56
2024/04/01 04:13:04;;;;;;;13.60;2.30;;;;;;;11.66;100.00;99438.88;106194;1251;66848;-56
2024/04/01 04:15:31;;;;;;;12.60;1.90;;;;;;;11.69;100.00;99437.81;106245;1257;72783;-56
2024/04/01 04:17:58;;;;;;;17.00;1.60;;;;;;;11.71;100.00;99439.17;106289;1253;61164;-56
2024/04/01 04:20:25;;;;;;;12.20;1.60;;;;;;;11.73;100.00;99443.87;106198;1261;61249;-56
2024/04/01 04:22:52;;;;;;;14.80;2.10;;;;;;;11.75;100.00;99442.35;106302;1252;74689;-56
2024/04/01 04:25:20;;;;;;;16.10;2.00;;;;;;;11.75;100.00;99443.23;106168;1265;67635;-56
2024/04/01 04:27:47;;;;;;;13.10;1.50;;;;;;;11.76;100.00;99443.36;106178;1256;72847;-56
2024/04/01 04:30:15;;;;;;;9.40;1.80;;;;;;;11.78;100.00;99439.52;106273;1253;62222;-56
2024/04/01 04:32:43;;;;;;;14.90;1.90;;;;;;;11.81;100.00;99443.50;106234;1254;61228;-56
2024/04/01 04:37:07;;;;;;;15.50;1.60;;;;;;;11.88;100.00;99441.27;102800;1295;600431;-56
2024/04/01 04:39:35;;;;;;;16.40;1.60;;;;;;;11.91;100.00;99445.20;105404;1269;61846;-56
2024/04/01 04:42:03;;;;;;;13.80;1.50;;;;;;;11.97;100.00;99442.89;105450;1265;60500;-56
2024/04/01 04:44:30;;;;;;;19.80;2.20;;;;;;;12.03;100.00;99439.48;105513;1267;73031;-56
2024/04/01 04:46:58;;;;;;;9.20;1.50;;;;;;;12.07;100.00;99443.92;105455;1264;66898;-55
2024/04/01 04:49:25;;;;;;;12.80;2.00;;;;;;;12.09;100.00;99439.44;105492;1267;73253;-56
2024/04/01 04:51:53;;;;;;;15.70;1.70;;;;;;;12.12;100.00;99448.11;105383;1269;145350;-55
2024/04/01 04:54:20;;;;;;;10.90;1.40;;;;;;;12.13;100.00;99447.31;105428;1266;59561;-55
2024/04/01 04:56:47;;;;;;;22.20;2.50;;;;;;;12.16;100.00;99444.98;105514;1266;74233;-55
2024/04/01 04:59:15;;;;;;;17.00;1.80;;;;;;;12.18;100.00;99439.27;105599;1268;66791;-56
2024/04/01 05:01:42;;;;;;;17.50;1.70;;;;;;;12.20;100.00;99438.27;105739;1266;73385;-56
2024/04/01 05:04:11;;;;;;;15.10;2.50;;;;;;;12.22;100.00;99433.88;105556;1260;60747;-56
2024/04/01 05:06:40;;;;;;;17.20;2.30;;;;;;;12.26;100.00;99434.14;108526;1260;60998;-56
2024/04/01 05:09:08;;;;;;;9.50;1.20;;;;;;;12.31;100.00;99431.70;107801;1266;73805;-56
2024/04/01 05:11:36;;;;;;;19.40;1.70;;;;;;;12.35;100.00;99430.30;105667;1266;65563;-56
2024/04/01 05:14:03;;;;;;;14.00;2.40;;;;;;;12.39;100.00;99435.48;105528;1261;72917;-55
2024/04/01 05:16:30;;;;;;;22.50;2.20;;;;;;;12.43;100.00;99437.22;105403;1277;60555;-55
2024/04/01 05:18:57;;;;;;;10.10;1.50;;;;;;;12.47;100.00;99442.77;105503;1269;60427;-56
2024/04/01 05:21:24;;;;;;;11.70;1.70;;;;;;;12.50;100.00;99442.16;105408;1266;73967;-55
2024/04/01 05:23:52;;;;;;;8.10;1.60;;;;;;;12.55;100.00;99442.98;105496;1264;67578;-56
2024/04/01 05:26:20;;;;;;;15.40;1.30;;;;;;;12.59;100.00;99442.73;105502;1263;72524;-55
2024/04/01 05:28:47;;;;;;;13.00;1.70;;;;;;;12.63;100.00;99449.50;105678;1269;61543;-55
2024/04/01 05:31:15;;;;;;;16.60;2.10;;;;;;;12.68;100.00;99452.40;105847;1263;60493;-56
2024/04/01 05:33:42;;;;;;;24.10;2.50;;;;;;;12.75;100.00;99454.16;105358;1263;72593;-56
2024/04/01 05:36:09;;;;;;;10.10;1.30;;;;;;;12.80;100.00;99457.41;105337;1263;67241;-55
2024/04/01 05:38:37;;;;;;;12.90;1.70;;;;;;;12.87;100.00;99459.16;105272;1266;71393;-55
2024/04/01 05:41:04;;;;;;;19.60;2.90;;;;;;;12.93;100.00;99453.23;105402;1267;60822;-56
2024/04/01 05:43:31;;;;;;;15.50;1.60;;;;;;;13.00;100.00;99450.63;105460;1261;60557;-56
2024/04/01 05:45:58;;;;;;;12.80;1.70;;;;;;;13.07;100.00;99449.82;105372;1276;72670;-55
2024/04/01 05:48:25;;;;;;;13.30;2.90;;;;;;;13.14;100.00;99447.40;105424;1267;66919;-55
2024/04/01 05:50:53;;;;;;;20.50;3.40;;;;;;;13.20;100.00;99444.45;105402;1269;72737;-55
2024/04/01 05:53:22;;;;;;;20.70;2.60;;;;;;;13.26;100.00;99444.84;105477;1269;61464;-56
2024/04/01 05:55:49;;;;;;;15.80;1.70;;;;;;;13.33;100.00;99443.86;106051;1259;60649;-55
2024/04/01 05:58:16;;;;;;;17.30;2.20;;;;;;;13.41;100.00;99444.22;106023;1260;73862;-55
2024/04/01 06:00:44;;;;;;;14.40;2.20;;;;;;;13.48;100.00;99460.68;106051;1254;67622;-55
2024/04/01 06:03:11;;;;;;;9.60;1.90;;;;;;;13.55;100.00;99469.39;106067;1259;72411;-55
2024/04/01 06:05:38;;;;;;;11.00;2.00;;;;;;;13.62;100.00;99452.57;106057;1260;60453;-54
2024/04/01 06:08:06;;;;;;;16.90;2.20;;;;;;;13.67;100.00;99457.67;105999;1260;60444;-55
2024/04/01 06:10:36;;;;;;;11.10;2.40;;;;;;;13.74;100.00;99458.09;106243;1259;72878;-55
2024/04/01 06:13:04;;;;;;;15.70;2.10;;;;;;;13.81;100.00;99456.18;106193;1259;65886;-54
2024/04/01 06:15:31;;;;;;;16.10;2.30;;;;;;;13.89;100.00;99465.70;105991;1264;72803;-53
2024/04/01 06:17:58;;;;;;;15.50;2.30;;;;;;;13.98;100.00;99461.19;106133;1260;60872;-56
2024/04/01 06:20:26;;;;;;;13.70;1.80;;;;;;;14.07;100.00;99465.42;106090;1259;60526;-55
2024/04/01 06:22:54;;;;;;;6.80;1.40;;;;;;;14.16;100.00;99467.88;106254;1260;72600;-55
2024/04/01 06:25:21;;;;;;;18.00;2.60;;;;;;;14.23;100.00;99472.29;106039;1260;66992;-56
2024/04/01 06:27:48;;;;;;;12.50;1.80;;;;;;;14.28;100.00;99472.52;106076;1260;73346;-56
2024/04/01 06:30:15;;;;;;;7.40;1.30;;;;;;;14.33;100.00;99469.97;106051;1263;61393;-55
2024/04/01 06:32:42;;;;;;;17.50;3.10;;;;;;;14.41;100.00;99470.70;106081;1255;61026;-55
2024/04/01 06:35:10;;;;;;;9.20;2.20;;;;;;;14.50;100.00;99470.67;106044;1269;72720;-56
2024/04/01 06:37:37;;;;;;;12.10;2.00;;;;;;;14.56;100.00;99468.08;106023;1269;65988;-56
2024/04/01 06:40:05;;;;;;;12.10;1.60;;;;;;;14.63;100.00;99471.40;106050;1260;72695;-55
2024/04/01 06:42:33;;;;;;;7.70;1.80;;;;;;;14.71;100.00;99472.81;105997;1258;60312;-55
2024/04/01 06:45:00;;;;;;;14.50;2.20;;;;;;;14.79;100.00;99473.30;108959;1254;59146;-55
2024/04/01 06:47:27;;;;;;;16.50;2.40;;;;;;;14.88;100.00;99481.74;106308;1259;72903;-55
2024/04/01 06:49:55;;;;;;;21.60;2.60;;;;;;;14.98;100.00;99486.29;105995;1260;67868;-55
2024/04/01 06:52:22;;;;;;;22.40;2.80;;;;;;;15.08;100.00;99489.67;106067;1261;71804;-53
2024/04/01 06:54:50;;;;;;;12.70;2.00;;;;;;;15.19;100.00;99496.16;105995;1257;61333;-55
2024/04/01 06:57:17;;;;;;;21.60;2.80;;;;;;;15.28;100.00;99493.34;106074;1268;60517;-55
2024/04/01 06:59:44;;;;;;;17.20;2.40;;;;;;;15.38;100.00;99500.17;105999;1260;74839;-54
2024/04/01 07:02:13;;;;;;;14.00;3.00;;;;;;;15.49;100.00;99501.19;106041;1260;66054;-55
2024/04/01 07:04:40;;;;;;;16.40;2.60;;;;;;;15.59;100.00;99504.10;106169;1260;72897;-55
2024/04/01 07:07:07;;;;;;;13.60;1.30;;;;;;;15.67;100.00;99502.60;106129;1259;60626;-54
2024/04/01 07:09:34;;;;;;;9.60;2.10;;;;;;;15.73;100.00;99502.00;106042;1254;61204;-55
2024/04/01 07:12:03;;;;;;;13.50;2.20;;;;;;;15.81;100.00;99502.30;105998;1260;72754;-55
2024/04/01 07:14:30;;;;;;;16.90;2.70;;;;;;;15.89;100.00;99506.25;106005;1259;67296;-55
2024/04/01 07:16:57;;;;;;;17.50;2.90;;;;;;;15.98;100.00;99505.40;106042;1260;73039;-55
2024/04/01 07:19:24;;;;;;;16.30;2.70;;;;;;;16.07;100.00;99501.11;106009;1259;60590;-55
2024/04/01 07:21:52;;;;;;;10.80;2.10;;;;;;;16.16;100.00;99503.52;106067;1266;60476;-56
2024/04/01 07:24:19;;;;;;;16.90;2.70;;;;;;;16.24;100.00;99499.63;106130;1254;72624;-55
2024/04/01 07:26:46;;;;;;;16.10;3.10;;;;;;;16.33;100.00;99502.41;106034;1268;67148;-56
2024/04/01 07:29:13;;;;;;;14.80;2.40;;;;;;;16.42;100.00;99502.41;105909;1269;71511;-54
2024/04/01 07:31:42;;;;;;;28.20;3.00;;;;;;;16.50;100.00;99501.20;105988;1270;60364;-55
2024/04/01 07:34:09;;;;;;;20.40;2.30;;;;;;;16.58;100.00;99505.36;109150;1254;58801;-55
2024/04/01 07:36:37;;;;;;;19.10;3.30;;;;;;;16.65;100.00;99507.89;108977;1253;76116;-56
2024/04/01 07:39:04;;;;;;;19.30;2.00;;;;;;;16.74;100.00;99508.30;109066;1255;67398;-55
2024/04/01 07:41:31;;;;;;;17.00;2.60;;;;;;;16.83;100.00;99506.13;107084;1254;75442;-55
2024/04/01 07:43:58;;;;;;;20.90;3.20;;;;;;;16.95;100.00;99506.11;105954;1261;60438;-55
2024/04/01 07:46:25;;;;;;;19.90;3.30;;;;;;;17.06;100.00;99507.76;105991;1270;61435;-55
2024/04/01 07:48:52;;;;;;;15.30;2.60;;;;;;;17.17;100.00;99502.39;106013;1269;75797;-56
2024/04/01 07:51:20;;;;;;;19.70;2.80;;;;;;;17.27;100.00;99500.63;105971;1254;67066;-56
2024/04/01 07:53:47;;;;;;;22.80;2.90;;;;;;;17.39;100.00;99503.11;105970;1255;72732;-55
2024/04/01 07:56:14;;;;;;;15.30;2.10;;;;;;;17.50;100.00;99504.05;106011;1254;60251;-53
2024/04/01 07:58:41;;;;;;;15.90;2.30;;;;;;;17.62;100.00;99505.13;105963;1259;60558;-55
2024/04/01 08:01:09;;;;;;;18.70;1.90;;;;;;;17.72;100.00;99509.40;105954;1264;73919;-54
2024/04/01 08:03:36;;;;;;;23.10;2.40;;;;;;;17.83;100.00;99509.77;105931;1260;67041;-56
2024/04/01 08:06:03;;;;;;;20.10;2.10;;;;;;;17.94;100.00;99506.14;105963;1261;73259;-54
2024/04/01 08:08:31;;;;;;;20.00;2.50;;;;;;;18.06;100.00;99511.09;106069;1259;61338;-55
2024/04/01 08:10:58;;;;;;;21.40;3.30;;;;;;;18.17;100.00;99511.42;106061;1268;60399;-56
2024/04/01 08:13:25;;;;;;;20.50;2.10;;;;;;;18.28;100.00;99507.29;106001;1259;74144;-55
2024/04/01 08:16:00;;;;;;;22.20;3.00;;;;;;;18.38;100.00;99503.29;105971;1260;65835;-55
2024/04/01 08:18:27;;;;;;;19.90;2.40;;;;;;;18.49;100.00;99505.80;106003;1260;72762;-56
2024/04/01 08:20:56;;;;;;;21.80;2.30;;;;;;;18.59;100.00;99508.27;105972;1264;60462;-55
2024/04/01 08:23:23;;;;;;;19.60;3.00;;;;;;;18.69;100.00;99508.92;106295;1268;60380;-55
2024/04/01 08:25:50;;;;;;;12.50;2.20;;;;;;;18.78;100.00;99511.73;105976;1260;74446;-54
2024/04/01 08:28:17;;;;;;;22.30;2.20;;;;;;;18.88;100.00;99510.27;106009;1261;67265;-57
2024/04/01 08:30:45;;;;;;;22.60;3.00;;;;;;;19.00;100.00;99512.95;106026;1258;71468;-56
2024/04/01 08:33:12;;;;;;;17.10;2.70;;;;;;;19.11;100.00;99519.77;106122;1259;59692;-55
2024/04/01 08:35:40;;;;;;;15.80;3.00;;;;;;;19.22;100.00;99521.66;105941;1261;60529;-56
2024/04/01 08:38:07;;;;;;;17.80;3.30;;;;;;;19.34;100.00;99524.63;105911;1260;73986;-55
2024/04/01 08:40:42;;;;;;;15.00;1.90;;;;;;;19.45;100.00;99520.96;105943;1276;65814;-55
2024/04/01 08:43:12;;;;;;;25.30;2.80;;;;;;;19.56;100.00;99521.24;105940;1260;71579;-54
2024/04/01 08:45:39;;;;;;;17.60;3.10;;;;;;;19.68;100.00;99520.19;106019;1254;61598;-53
2024/04/01 08:48:12;;;;;;;17.40;2.30;;;;;;;19.79;100.00;99523.59;105849;1256;61591;-54
2024/04/01 08:50:48;;;;;;;16.70;2.80;;;;;;;19.88;100.00;99524.80;105974;1255;73420;-56
2024/04/01 08:53:39;;;;;;;17.10;2.90;;;;;;;19.96;100.00;99524.88;106431;1257;67017;-55
2024/04/01 08:56:07;;;;;;;15.90;1.90;;;;;;;20.06;100.00;99522.16;105788;1254;73210;-55
2024/04/01 08:58:34;;;;;;;13.90;3.00;;;;;;;20.16;100.00;99519.48;105883;1268;62083;-56
2024/04/01 09:01:02;;;;;;;14.70;2.50;;;;;;;20.27;100.00;99514.47;105890;1260;62126;-54
2024/04/01 09:03:29;;;;;;;18.50;2.80;;;;;;;20.35;100.00;99510.77;105998;1260;73751;-54
2024/04/01 09:05:57;;;;;;;22.60;2.60;;;;;;;20.44;100.00;99507.08;105966;1254;67218;-57
2024/04/01 09:08:25;;;;;;;18.70;3.20;;;;;;;20.51;100.00;99501.88;106068;1260;71922;-56
2024/04/01 09:10:52;;;;;;;18.50;2.70;;;;;;;20.58;100.00;99495.94;109024;1254;59608;-56
2024/04/01 09:13:19;;;;;;;17.30;2.70;;;;;;;20.64;100.00;99494.54;106610;1259;61106;-56
2024/04/01 09:15:47;;;;;;;17.70;3.40;;;;;;;20.72;100.00;99486.94;106037;1260;75824;-57
2024/04/01 09:18:15;;;;;;;14.30;2.50;;;;;;;20.80;100.00;99479.41;105797;1260;65753;-56
2024/04/01 09:20:43;;;;;;;12.90;2.30;;;;;;;20.89;100.00;99474.68;105969;1254;71939;-56
2024/04/01 09:23:10;;;;;;;13.60;2.90;;;;;;;20.97;100.00;99474.10;105901;1270;62005;-56
2024/04/01 09:25:37;;;;;;;16.20;2.20;;;;;;;21.02;100.00;99477.45;105989;1260;61732;-56
2024/04/01 09:28:05;;;;;;;19.10;2.70;;;;;;;21.06;100.00;99480.22;106024;1260;74723;-56
2024/04/01 09:30:33;;;;;;;23.00;4.30;;;;;;;21.09;100.00;99480.04;106130;1254;66103;-55
2024/04/01 09:33:00;;;;;;;24.30;3.80;;;;;;;21.15;100.00;99480.27;106048;1257;71446;-56
2024/04/01 09:35:28;;;;;;;21.10;5.00;;;;;;;21.22;100.00;99474.14;105937;1261;62799;-55
2024/04/01 09:37:55;;;;;;;22.40;3.00;;;;;;;21.31;100.00;99476.94;105874;1259;61336;-57
2024/04/01 09:40:22;;;;;;;19.80;3.20;;;;;;;21.39;100.00;99476.05;105877;1261;75111;-57
2024/04/01 09:42:49;;;;;;;23.40;3.00;;;;;;;21.51;100.00;99476.00;105931;1260;66954;-56
2024/04/01 09:45:16;;;;;;;19.00;2.00;;;;;;;21.63;100.00;99475.01;105855;1260;71782;-57
2024/04/01 09:47:44;;;;;;;22.90;2.90;;;;;;;21.75;100.00;99475.98;106007;1264;61296;-56
2024/04/01 09:50:11;;;;;;;15.70;2.20;;;;;;;21.87;100.00;99472.81;105858;1260;61448;-56
2024/04/01 09:52:38;;;;;;;21.60;3.10;;;;;;;22.00;100.00;99469.91;105754;1260;73382;-55
2024/04/01 09:55:22;;;;;;;20.80;2.30;;;;;;;22.12;100.00;99474.16;105891;1261;65644;-54
2024/04/01 09:58:11;;;;;;;29.20;3.60;;;;;;;22.23;100.00;99474.65;106019;1260;73097;-55
2024/04/01 10:00:51;;;;;;;26.80;3.90;;;;;;;22.35;100.00;99471.67;105913;1257;61392;-56
2024/04/01 10:04:09;;;;;;;27.40;4.00;;;;;;;22.45;100.00;99466.98;105806;1262;61966;-55
2024/04/01 10:06:46;;;;;;;21.90;3.30;;;;;;;22.57;100.00;99465.73;105636;1261;75170;-56
2024/04/01 10:09:29;;;;;;;23.40;5.00;;;;;;;22.65;100.00;99467.42;105883;1254;67170;-56
2024/04/01 10:12:12;;;;;;;22.20;2.80;;;;;;;22.74;100.00;99460.09;105982;1260;72457;-55
2024/04/01 10:14:48;;;;;;;18.30;2.40;;;;;;;22.86;100.00;99461.48;105874;1278;61433;-56
2024/04/01 10:17:28;;;;;;;22.60;3.40;;;;;;;22.94;100.00;99462.60;105923;1254;61234;-55
2024/04/01 10:20:24;;;;;;;25.80;4.40;;;;;;;23.00;100.00;99461.40;106036;1256;74922;-57
2024/04/01 10:23:16;;;;;;;32.10;3.10;;;;;;;23.08;100.00;99461.73;105695;1257;65110;-56
2024/04/01 10:26:15;;;;;;;27.70;4.30;;;;;;;23.15;100.00;99459.49;106061;1272;71456;-57
2024/04/01 10:29:10;;;;;;;22.30;3.00;;;;;;;23.24;100.00;99459.86;105908;1264;61186;-57
2024/04/01 10:31:38;;;;;;;21.70;3.00;;;;;;;23.32;100.00;99456.23;106051;1260;62322;-56
2024/04/01 10:34:17;;;;;;;30.10;2.90;;;;;;;23.39;100.00;99456.76;106029;1264;74996;-57
2024/04/01 10:37:30;;;;;;;22.80;3.80;;;;;;;23.44;100.00;99452.58;105950;1260;67414;-57
2024/04/01 10:40:08;;;;;;;26.30;3.20;;;;;;;23.50;100.00;99452.14;109020;1254;71941;-56
2024/04/01 10:42:47;;;;;;;28.30;3.60;;;;;;;23.52;100.00;99452.10;109044;1254;60120;-56
2024/04/01 10:45:41;;;;;;;29.20;3.60;;;;;;;23.50;100.00;99448.44;109018;1254;62373;-57
2024/04/01 10:48:25;;;;;;;25.00;2.90;;;;;;;23.45;100.00;99445.68;108915;1254;74704;-56
2024/04/01 10:51:05;;;;;;;;;;;;;;;23.42;100.00;99445.48;108453;1256;67761;-56
2024/04/01 10:53:47;;;;;;;22.40;3.50;;;;;;;23.40;100.00;99444.79;106071;1257;72730;-56
2024/04/01 10:56:53;;;;;;;21.60;4.00;;;;;;;23.38;100.00;99438.58;106085;1258;60624;-56
2024/04/01 10:59:55;;;;;;;17.80;4.30;;;;;;;23.36;100.00;99438.52;106196;1254;61228;-56
2024/04/01 11:02:50;;;;;;;27.40;3.80;;;;;;;23.38;100.00;99438.95;106126;1259;74547;-56
2024/04/01 11:05:21;;;;;;;20.70;3.00;;;;;;;23.40;100.00;99437.05;106174;1256;65748;-55
2024/04/01 11:08:05;;;;;;;20.40;2.90;;;;;;;23.41;100.00;99433.63;108999;1254;73400;-56
2024/04/01 11:10:36;;;;;;;24.30;4.30;;;;;;;23.41;100.00;99431.98;108988;1254;59319;-56
2024/04/01 11:13:09;;;;;;;28.40;4.70;;;;;;;23.41;100.00;99431.61;106217;1259;61401;-56
2024/04/01 11:15:37;;;;;;;19.10;4.20;;;;;;;23.43;100.00;99428.48;106467;1253;74746;-55
2024/04/01 11:18:28;;;;;;;16.80;2.40;;;;;;;23.47;100.00;99423.34;105998;1254;67737;-54
2024/04/01 11:21:04;;;;;;;19.40;2.50;;;;;;;23.53;100.00;99419.96;106958;1254;73051;-56
2024/04/01 11:23:49;;;;;;;25.10;3.10;;;;;;;23.57;100.00;99412.73;106408;1258;61445;-54